Atlas Wind — 9HA2547 — position and weather

sailwx.info

Track history (hours):
 
Tides and Currents Weather Stations Pressure Air Temp Water Temp Dewpoint Dewpoint Depression Visibility Wind Speed Wind Dir Waves Ship Positions

Atlas Wind

Last reported at 2017-Nov-19 22:50 UTC. Time now 2017-Nov-20 19:02 UTC.
Position N 38°21' E 024°29'.

Length 100 m; draft 4.5 m.

Type: Cargo ship. MMSI: 248848000.

Date/timePositionNaut miles runAvg speedWind from/ knotsBaromVisibWave heightAir tempDewpointWater temp
2017-Nov-19 22:50N 38°21' E 024°29'3810.1
2017-Nov-19 19:04N 37°44' E 024°20'1111.5
2017-Nov-19 18:07N 37°37' E 024°09'1211.5
2017-Nov-19 17:02N 37°36' E 023°53'112.3
2017-Nov-19 16:57N 37°36' E 023°52'512.1
2017-Nov-19 16:31N 37°37' E 023°45'612.3
2017-Nov-19 16:01N 37°38' E 023°37'612.3
2017-Nov-19 15:31N 37°39' E 023°30'612.3
2017-Nov-19 15:01N 37°40' E 023°22'510.0
2017-Nov-19 14:31N 37°43' E 023°17'612.4
2017-Nov-19 14:01N 37°48' E 023°12'612.4
2017-Nov-19 13:30N 37°52' E 023°06'611.2
2017-Nov-19 13:01N 37°55' E 023°00'2 4.3
2017-Nov-19 12:28N 37°57' E 022°58'3 6.3
2017-Nov-19 12:01N 37°59' E 022°56'3 5.5
2017-Nov-19 11:31N 38°00' E 022°53'3 5.2
2017-Nov-19 11:00N 38°01' E 022°50'3 5.3
2017-Nov-19 10:31N 38°02' E 022°47'3 5.3
2017-Nov-19 10:00N 38°04' E 022°44'3 5.3
2017-Nov-19 09:30N 38°05' E 022°41'3 6.0
2017-Nov-19 09:00N 38°07' E 022°38'612.4
2017-Nov-19 08:29N 38°10' E 022°31'  
Track history (hours):
 
Tides and Currents Weather Stations Pressure Air Temp Water Temp Dewpoint Dewpoint Depression Visibility Wind Speed Wind Dir Waves Ship Positions

Atlas Wind

Last reported at 2017-Nov-19 22:50 UTC. Time now 2017-Nov-20 19:02 UTC.
Position N 38°21' E 024°29'.

Length 100 m; draft 4.5 m.

Type: Cargo ship. MMSI: 248848000.

Date/timePositionNaut miles runAvg speedWind from/ knotsBaromVisibWave heightAir tempDewpointWater temp
2017-Nov-19 22:50N 38°21' E 024°29'3810.1
2017-Nov-19 19:04N 37°44' E 024°20'1111.5
2017-Nov-19 18:07N 37°37' E 024°09'1211.5
2017-Nov-19 17:02N 37°36' E 023°53'112.3
2017-Nov-19 16:57N 37°36' E 023°52'512.1
2017-Nov-19 16:31N 37°37' E 023°45'612.3
2017-Nov-19 16:01N 37°38' E 023°37'612.3
2017-Nov-19 15:31N 37°39' E 023°30'612.3
2017-Nov-19 15:01N 37°40' E 023°22'510.0
2017-Nov-19 14:31N 37°43' E 023°17'612.4
2017-Nov-19 14:01N 37°48' E 023°12'612.4
2017-Nov-19 13:30N 37°52' E 023°06'611.2
2017-Nov-19 13:01N 37°55' E 023°00'2 4.3
2017-Nov-19 12:28N 37°57' E 022°58'3 6.3
2017-Nov-19 12:01N 37°59' E 022°56'3 5.5
2017-Nov-19 11:31N 38°00' E 022°53'3 5.2
2017-Nov-19 11:00N 38°01' E 022°50'3 5.3
2017-Nov-19 10:31N 38°02' E 022°47'3 5.3
2017-Nov-19 10:00N 38°04' E 022°44'3 5.3
2017-Nov-19 09:30N 38°05' E 022°41'3 6.0
2017-Nov-19 09:00N 38°07' E 022°38'612.4
2017-Nov-19 08:29N 38°10' E 022°31'  

Dump ship's entire track history